sensor_id;sensor_type;location;lat;lon;timestamp;P1;durP1;ratioP1;P2;durP2;ratioP2
37169;SDS011;23062;13.952;100.608;2023-07-29T00:01:24;25.00;;;18.00;;
37169;SDS011;23062;13.952;100.608;2023-07-29T00:05:57;21.00;;;16.00;;
37169;SDS011;23062;13.952;100.608;2023-07-29T00:10:24;15.00;;;11.00;;
37169;SDS011;23062;13.952;100.608;2023-07-29T00:14:53;13.00;;;10.00;;
37169;SDS011;23062;13.952;100.608;2023-07-29T00:19:24;12.00;;;9.00;;
37169;SDS011;23062;13.952;100.608;2023-07-29T00:24:00;12.00;;;8.00;;
37169;SDS011;23062;13.952;100.608;2023-07-29T00:28:28;11.00;;;8.00;;
37169;SDS011;23062;13.952;100.608;2023-07-29T00:32:55;10.00;;;7.00;;
37169;SDS011;23062;13.952;100.608;2023-07-29T00:37:21;12.00;;;8.00;;
37169;SDS011;23062;13.952;100.608;2023-07-29T00:41:48;9.00;;;6.00;;
37169;SDS011;23062;13.952;100.608;2023-07-29T00:46:14;12.00;;;9.00;;
37169;SDS011;23062;13.952;100.608;2023-07-29T00:50:41;13.00;;;9.00;;
37169;SDS011;23062;13.952;100.608;2023-07-29T00:55:06;12.00;;;8.00;;
37169;SDS011;23062;13.952;100.608;2023-07-29T00:59:33;12.00;;;8.00;;
37169;SDS011;23062;13.952;100.608;2023-07-29T01:04:08;14.00;;;11.00;;
37169;SDS011;23062;13.952;100.608;2023-07-29T01:08:45;10.00;;;7.00;;
37169;SDS011;23062;13.952;100.608;2023-07-29T01:13:20;10.00;;;7.00;;
37169;SDS011;23062;13.952;100.608;2023-07-29T01:17:52;9.00;;;6.00;;
37169;SDS011;23062;13.952;100.608;2023-07-29T01:22:20;6.00;;;4.00;;
37169;SDS011;23062;13.952;100.608;2023-07-29T01:26:47;7.00;;;5.00;;
37169;SDS011;23062;13.952;100.608;2023-07-29T01:31:27;8.00;;;5.00;;
37169;SDS011;23062;13.952;100.608;2023-07-29T01:35:55;6.00;;;4.00;;
37169;SDS011;23062;13.952;100.608;2023-07-29T01:40:29;7.00;;;5.00;;
37169;SDS011;23062;13.952;100.608;2023-07-29T01:44:58;6.00;;;4.00;;
37169;SDS011;23062;13.952;100.608;2023-07-29T01:49:25;6.00;;;4.00;;
37169;SDS011;23062;13.952;100.608;2023-07-29T01:53:53;7.00;;;5.00;;
37169;SDS011;23062;13.952;100.608;2023-07-29T01:58:28;6.00;;;4.00;;
37169;SDS011;23062;13.952;100.608;2023-07-29T02:02:57;5.00;;;3.00;;
37169;SDS011;23062;13.952;100.608;2023-07-29T02:07:24;7.00;;;4.00;;
37169;SDS011;23062;13.952;100.608;2023-07-29T02:11:57;7.00;;;5.00;;
37169;SDS011;23062;13.952;100.608;2023-07-29T02:16:24;8.00;;;5.00;;
37169;SDS011;23062;13.952;100.608;2023-07-29T02:20:53;6.00;;;4.00;;
37169;SDS011;23062;13.952;100.608;2023-07-29T02:25:20;5.00;;;3.00;;
37169;SDS011;23062;13.952;100.608;2023-07-29T02:29:54;6.00;;;4.00;;
37169;SDS011;23062;13.952;100.608;2023-07-29T02:34:21;4.00;;;3.00;;
37169;SDS011;23062;13.952;100.608;2023-07-29T02:39:01;6.00;;;4.00;;
37169;SDS011;23062;13.952;100.608;2023-07-29T02:43:32;6.00;;;4.00;;
37169;SDS011;23062;13.952;100.608;2023-07-29T02:48:07;6.00;;;3.73;;
37169;SDS011;23062;13.952;100.608;2023-07-29T02:52:32;5.00;;;3.00;;
37169;SDS011;23062;13.952;100.608;2023-07-29T02:56:59;8.00;;;5.00;;
37169;SDS011;23062;13.952;100.608;2023-07-29T03:01:25;12.00;;;8.00;;
37169;SDS011;23062;13.952;100.608;2023-07-29T03:06:00;11.00;;;8.00;;
37169;SDS011;23062;13.952;100.608;2023-07-29T03:10:34;8.00;;;6.00;;
37169;SDS011;23062;13.952;100.608;2023-07-29T03:14:58;10.00;;;7.00;;
37169;SDS011;23062;13.952;100.608;2023-07-29T03:19:27;9.00;;;6.00;;
37169;SDS011;23062;13.952;100.608;2023-07-29T03:23:56;12.00;;;9.00;;
37169;SDS011;23062;13.952;100.608;2023-07-29T03:28:24;10.00;;;7.00;;
37169;SDS011;23062;13.952;100.608;2023-07-29T03:32:57;8.00;;;6.00;;
37169;SDS011;23062;13.952;100.608;2023-07-29T03:37:32;10.00;;;7.00;;
37169;SDS011;23062;13.952;100.608;2023-07-29T03:42:06;8.00;;;5.00;;
37169;SDS011;23062;13.952;100.608;2023-07-29T03:46:31;6.00;;;4.00;;
37169;SDS011;23062;13.952;100.608;2023-07-29T03:50:57;4.00;;;3.00;;
37169;SDS011;23062;13.952;100.608;2023-07-29T03:55:23;5.00;;;3.00;;
37169;SDS011;23062;13.952;100.608;2023-07-29T03:59:50;7.00;;;5.00;;
37169;SDS011;23062;13.952;100.608;2023-07-29T04:04:21;6.00;;;4.00;;
37169;SDS011;23062;13.952;100.608;2023-07-29T04:08:46;4.00;;;3.00;;
37169;SDS011;23062;13.952;100.608;2023-07-29T04:13:15;5.00;;;3.00;;
37169;SDS011;23062;13.952;100.608;2023-07-29T04:17:41;8.00;;;6.00;;
37169;SDS011;23062;13.952;100.608;2023-07-29T04:22:08;7.00;;;5.00;;
37169;SDS011;23062;13.952;100.608;2023-07-29T04:26:35;6.00;;;4.00;;
37169;SDS011;23062;13.952;100.608;2023-07-29T04:31:03;5.00;;;2.80;;
37169;SDS011;23062;13.952;100.608;2023-07-29T04:35:31;8.00;;;5.00;;
37169;SDS011;23062;13.952;100.608;2023-07-29T04:39:59;4.00;;;3.00;;
37169;SDS011;23062;13.952;100.608;2023-07-29T04:44:30;6.00;;;4.00;;
37169;SDS011;23062;13.952;100.608;2023-07-29T04:48:56;5.00;;;3.00;;
37169;SDS011;23062;13.952;100.608;2023-07-29T04:53:31;5.00;;;3.00;;
37169;SDS011;23062;13.952;100.608;2023-07-29T04:57:58;5.00;;;3.00;;
37169;SDS011;23062;13.952;100.608;2023-07-29T05:02:34;3.00;;;2.00;;
37169;SDS011;23062;13.952;100.608;2023-07-29T05:07:07;5.00;;;3.00;;
37169;SDS011;23062;13.952;100.608;2023-07-29T05:11:34;5.00;;;3.00;;
37169;SDS011;23062;13.952;100.608;2023-07-29T05:16:03;4.00;;;2.00;;
37169;SDS011;23062;13.952;100.608;2023-07-29T05:20:29;4.00;;;3.00;;
37169;SDS011;23062;13.952;100.608;2023-07-29T05:24:55;4.00;;;3.00;;
37169;SDS011;23062;13.952;100.608;2023-07-29T05:29:21;4.00;;;3.00;;
37169;SDS011;23062;13.952;100.608;2023-07-29T05:33:47;2.00;;;1.00;;
37169;SDS011;23062;13.952;100.608;2023-07-29T05:38:21;3.00;;;2.00;;
37169;SDS011;23062;13.952;100.608;2023-07-29T05:42:48;5.00;;;3.00;;
37169;SDS011;23062;13.952;100.608;2023-07-29T05:47:22;4.00;;;2.00;;
37169;SDS011;23062;13.952;100.608;2023-07-29T05:51:50;3.00;;;2.00;;
37169;SDS011;23062;13.952;100.608;2023-07-29T05:56:16;4.00;;;2.00;;
37169;SDS011;23062;13.952;100.608;2023-07-29T06:00:41;5.00;;;3.00;;
37169;SDS011;23062;13.952;100.608;2023-07-29T06:05:09;4.00;;;3.00;;
37169;SDS011;23062;13.952;100.608;2023-07-29T06:09:35;3.00;;;2.00;;
37169;SDS011;23062;13.952;100.608;2023-07-29T06:14:03;2.00;;;1.00;;
37169;SDS011;23062;13.952;100.608;2023-07-29T06:18:30;4.00;;;2.00;;
37169;SDS011;23062;13.952;100.608;2023-07-29T06:22:58;3.00;;;2.00;;
37169;SDS011;23062;13.952;100.608;2023-07-29T06:27:25;4.00;;;2.00;;
37169;SDS011;23062;13.952;100.608;2023-07-29T06:31:53;4.00;;;2.00;;
37169;SDS011;23062;13.952;100.608;2023-07-29T06:36:27;4.00;;;2.00;;
37169;SDS011;23062;13.952;100.608;2023-07-29T06:40:54;3.00;;;2.00;;
37169;SDS011;23062;13.952;100.608;2023-07-29T06:45:21;4.00;;;2.80;;
37169;SDS011;23062;13.952;100.608;2023-07-29T06:49:55;4.00;;;2.00;;
37169;SDS011;23062;13.952;100.608;2023-07-29T06:54:28;3.00;;;2.00;;
37169;SDS011;23062;13.952;100.608;2023-07-29T06:58:53;5.00;;;3.00;;
37169;SDS011;23062;13.952;100.608;2023-07-29T07:03:19;6.00;;;4.00;;
37169;SDS011;23062;13.952;100.608;2023-07-29T07:07:46;3.00;;;2.00;;
37169;SDS011;23062;13.952;100.608;2023-07-29T07:12:12;3.00;;;2.00;;
37169;SDS011;23062;13.952;100.608;2023-07-29T07:16:46;6.00;;;4.00;;
37169;SDS011;23062;13.952;100.608;2023-07-29T07:21:13;8.00;;;6.00;;
37169;SDS011;23062;13.952;100.608;2023-07-29T07:25:47;9.00;;;6.00;;
37169;SDS011;23062;13.952;100.608;2023-07-29T07:30:19;6.00;;;4.00;;
37169;SDS011;23062;13.952;100.608;2023-07-29T07:34:52;6.00;;;4.00;;
37169;SDS011;23062;13.952;100.608;2023-07-29T07:39:25;4.00;;;3.00;;
37169;SDS011;23062;13.952;100.608;2023-07-29T07:43:59;3.00;;;2.00;;
37169;SDS011;23062;13.952;100.608;2023-07-29T07:48:24;4.00;;;3.00;;
37169;SDS011;23062;13.952;100.608;2023-07-29T07:52:50;2.00;;;1.00;;
37169;SDS011;23062;13.952;100.608;2023-07-29T07:57:25;4.00;;;2.00;;
37169;SDS011;23062;13.952;100.608;2023-07-29T08:01:53;4.00;;;2.00;;
37169;SDS011;23062;13.952;100.608;2023-07-29T08:06:26;3.00;;;2.00;;
37169;SDS011;23062;13.952;100.608;2023-07-29T08:10:57;5.00;;;3.00;;
37169;SDS011;23062;13.952;100.608;2023-07-29T08:15:22;4.00;;;2.00;;
37169;SDS011;23062;13.952;100.608;2023-07-29T08:19:55;2.00;;;1.00;;
37169;SDS011;23062;13.952;100.608;2023-07-29T08:24:32;3.00;;;2.00;;
37169;SDS011;23062;13.952;100.608;2023-07-29T08:29:07;3.00;;;1.87;;
37169;SDS011;23062;13.952;100.608;2023-07-29T08:33:33;5.00;;;3.00;;
37169;SDS011;23062;13.952;100.608;2023-07-29T08:38:05;2.00;;;1.00;;
37169;SDS011;23062;13.952;100.608;2023-07-29T08:42:31;5.00;;;3.00;;
37169;SDS011;23062;13.952;100.608;2023-07-29T08:47:06;3.00;;;2.00;;
37169;SDS011;23062;13.952;100.608;2023-07-29T08:51:32;5.00;;;3.00;;
37169;SDS011;23062;13.952;100.608;2023-07-29T08:56:07;3.00;;;2.00;;
37169;SDS011;23062;13.952;100.608;2023-07-29T09:00:36;3.00;;;2.00;;
37169;SDS011;23062;13.952;100.608;2023-07-29T09:05:05;4.00;;;3.00;;
37169;SDS011;23062;13.952;100.608;2023-07-29T09:09:32;5.00;;;3.00;;
37169;SDS011;23062;13.952;100.608;2023-07-29T09:13:57;3.00;;;2.00;;
37169;SDS011;23062;13.952;100.608;2023-07-29T09:18:27;3.00;;;2.00;;
37169;SDS011;23062;13.952;100.608;2023-07-29T09:22:58;2.00;;;1.00;;
37169;SDS011;23062;13.952;100.608;2023-07-29T09:27:32;5.00;;;3.00;;
37169;SDS011;23062;13.952;100.608;2023-07-29T09:32:24;2.00;;;1.00;;
37169;SDS011;23062;13.952;100.608;2023-07-29T09:36:51;2.00;;;1.00;;
37169;SDS011;23062;13.952;100.608;2023-07-29T09:41:24;4.00;;;2.00;;
37169;SDS011;23062;13.952;100.608;2023-07-29T09:46:09;4.00;;;3.00;;
37169;SDS011;23062;13.952;100.608;2023-07-29T09:50:37;2.00;;;0.93;;
37169;SDS011;23062;13.952;100.608;2023-07-29T09:55:12;2.00;;;1.00;;
37169;SDS011;23062;13.952;100.608;2023-07-29T09:59:58;4.00;;;2.00;;
37169;SDS011;23062;13.952;100.608;2023-07-29T10:04:21;2.00;;;1.00;;
37169;SDS011;23062;13.952;100.608;2023-07-29T10:08:47;2.00;;;0.93;;
37169;SDS011;23062;13.952;100.608;2023-07-29T10:13:23;5.00;;;3.00;;
37169;SDS011;23062;13.952;100.608;2023-07-29T10:17:50;3.00;;;2.00;;
37169;SDS011;23062;13.952;100.608;2023-07-29T10:22:20;3.00;;;2.00;;
37169;SDS011;23062;13.952;100.608;2023-07-29T10:26:51;2.00;;;1.00;;
37169;SDS011;23062;13.952;100.608;2023-07-29T10:31:25;4.00;;;1.87;;
37169;SDS011;23062;13.952;100.608;2023-07-29T10:35:53;3.00;;;2.00;;
37169;SDS011;23062;13.952;100.608;2023-07-29T10:40:20;4.00;;;2.00;;
37169;SDS011;23062;13.952;100.608;2023-07-29T10:44:52;5.00;;;3.00;;
37169;SDS011;23062;13.952;100.608;2023-07-29T10:49:29;4.00;;;2.00;;
37169;SDS011;23062;13.952;100.608;2023-07-29T10:53:57;4.00;;;2.00;;
37169;SDS011;23062;13.952;100.608;2023-07-29T10:58:32;2.00;;;1.00;;
37169;SDS011;23062;13.952;100.608;2023-07-29T11:03:03;3.00;;;2.00;;
37169;SDS011;23062;13.952;100.608;2023-07-29T11:07:31;5.00;;;3.00;;
37169;SDS011;23062;13.952;100.608;2023-07-29T11:17:23;4.00;;;3.00;;
37169;SDS011;23062;13.952;100.608;2023-07-29T11:21:49;5.00;;;3.00;;
37169;SDS011;23062;13.952;100.608;2023-07-29T11:26:18;3.00;;;2.00;;
37169;SDS011;23062;13.952;100.608;2023-07-29T11:30:44;5.00;;;3.00;;
37169;SDS011;23062;13.952;100.608;2023-07-29T11:35:18;4.00;;;3.00;;
37169;SDS011;23062;13.952;100.608;2023-07-29T11:39:44;5.00;;;3.00;;
37169;SDS011;23062;13.952;100.608;2023-07-29T11:44:17;5.00;;;3.00;;
37169;SDS011;23062;13.952;100.608;2023-07-29T11:48:44;4.00;;;2.00;;
37169;SDS011;23062;13.952;100.608;2023-07-29T11:53:10;3.00;;;2.00;;
37169;SDS011;23062;13.952;100.608;2023-07-29T11:57:37;4.00;;;2.00;;
37169;SDS011;23062;13.952;100.608;2023-07-29T12:02:11;4.00;;;2.00;;
37169;SDS011;23062;13.952;100.608;2023-07-29T12:06:36;4.00;;;2.00;;
37169;SDS011;23062;13.952;100.608;2023-07-29T12:11:04;4.00;;;2.00;;
37169;SDS011;23062;13.952;100.608;2023-07-29T12:15:35;7.00;;;4.00;;
37169;SDS011;23062;13.952;100.608;2023-07-29T12:20:04;4.00;;;2.00;;
37169;SDS011;23062;13.952;100.608;2023-07-29T12:24:41;4.00;;;3.00;;
37169;SDS011;23062;13.952;100.608;2023-07-29T12:29:15;4.00;;;2.00;;
37169;SDS011;23062;13.952;100.608;2023-07-29T12:33:46;6.00;;;4.00;;
37169;SDS011;23062;13.952;100.608;2023-07-29T12:38:20;6.00;;;4.00;;
37169;SDS011;23062;13.952;100.608;2023-07-29T12:47:29;5.00;;;3.00;;
37169;SDS011;23062;13.952;100.608;2023-07-29T12:51:56;5.00;;;3.00;;
37169;SDS011;23062;13.952;100.608;2023-07-29T12:56:32;5.00;;;3.00;;
37169;SDS011;23062;13.952;100.608;2023-07-29T13:00:59;5.00;;;3.00;;
37169;SDS011;23062;13.952;100.608;2023-07-29T13:05:29;6.00;;;4.00;;
37169;SDS011;23062;13.952;100.608;2023-07-29T13:09:56;6.00;;;4.00;;
37169;SDS011;23062;13.952;100.608;2023-07-29T13:14:22;4.00;;;3.00;;
37169;SDS011;23062;13.952;100.608;2023-07-29T13:18:50;4.00;;;2.00;;
37169;SDS011;23062;13.952;100.608;2023-07-29T13:23:19;5.00;;;3.00;;
37169;SDS011;23062;13.952;100.608;2023-07-29T13:27:46;4.00;;;3.00;;
37169;SDS011;23062;13.952;100.608;2023-07-29T13:32:17;4.00;;;3.00;;
37169;SDS011;23062;13.952;100.608;2023-07-29T13:36:46;5.00;;;3.00;;
37169;SDS011;23062;13.952;100.608;2023-07-29T13:41:14;5.00;;;3.00;;
37169;SDS011;23062;13.952;100.608;2023-07-29T13:45:41;3.00;;;2.00;;
37169;SDS011;23062;13.952;100.608;2023-07-29T13:50:10;5.00;;;3.00;;
37169;SDS011;23062;13.952;100.608;2023-07-29T13:54:39;5.00;;;3.00;;
37169;SDS011;23062;13.952;100.608;2023-07-29T13:59:16;3.00;;;2.00;;
37169;SDS011;23062;13.952;100.608;2023-07-29T14:03:46;5.00;;;3.00;;
37169;SDS011;23062;13.952;100.608;2023-07-29T14:08:13;4.00;;;2.00;;
37169;SDS011;23062;13.952;100.608;2023-07-29T14:12:48;6.00;;;4.00;;
37169;SDS011;23062;13.952;100.608;2023-07-29T14:17:16;5.00;;;3.00;;
37169;SDS011;23062;13.952;100.608;2023-07-29T14:21:44;5.00;;;3.00;;
37169;SDS011;23062;13.952;100.608;2023-07-29T14:26:13;6.00;;;4.00;;
37169;SDS011;23062;13.952;100.608;2023-07-29T14:30:40;6.00;;;4.00;;
37169;SDS011;23062;13.952;100.608;2023-07-29T14:35:08;4.00;;;3.00;;
37169;SDS011;23062;13.952;100.608;2023-07-29T14:39:44;5.00;;;3.00;;
37169;SDS011;23062;13.952;100.608;2023-07-29T14:44:12;6.00;;;4.00;;
37169;SDS011;23062;13.952;100.608;2023-07-29T14:48:39;7.00;;;5.00;;
37169;SDS011;23062;13.952;100.608;2023-07-29T14:53:09;6.00;;;4.00;;
37169;SDS011;23062;13.952;100.608;2023-07-29T14:57:35;6.00;;;4.00;;
37169;SDS011;23062;13.952;100.608;2023-07-29T15:02:07;6.00;;;4.00;;
37169;SDS011;23062;13.952;100.608;2023-07-29T15:06:41;6.00;;;4.00;;
37169;SDS011;23062;13.952;100.608;2023-07-29T15:11:17;6.00;;;4.00;;
37169;SDS011;23062;13.952;100.608;2023-07-29T15:15:51;7.00;;;5.00;;
37169;SDS011;23062;13.952;100.608;2023-07-29T15:20:20;7.00;;;4.00;;
37169;SDS011;23062;13.952;100.608;2023-07-29T15:24:48;9.00;;;6.00;;
37169;SDS011;23062;13.952;100.608;2023-07-29T15:29:14;6.00;;;4.00;;
37169;SDS011;23062;13.952;100.608;2023-07-29T15:33:48;6.00;;;4.00;;
37169;SDS011;23062;13.952;100.608;2023-07-29T15:38:15;6.00;;;4.00;;
37169;SDS011;23062;13.952;100.608;2023-07-29T15:42:48;7.00;;;5.00;;
37169;SDS011;23062;13.952;100.608;2023-07-29T15:47:16;5.00;;;3.00;;
37169;SDS011;23062;13.952;100.608;2023-07-29T15:51:46;7.00;;;5.00;;
37169;SDS011;23062;13.952;100.608;2023-07-29T15:56:14;8.00;;;6.00;;
37169;SDS011;23062;13.952;100.608;2023-07-29T16:00:40;8.00;;;6.00;;
37169;SDS011;23062;13.952;100.608;2023-07-29T16:05:12;9.00;;;6.00;;
37169;SDS011;23062;13.952;100.608;2023-07-29T16:09:39;8.00;;;5.00;;
37169;SDS011;23062;13.952;100.608;2023-07-29T16:14:06;5.00;;;3.00;;
37169;SDS011;23062;13.952;100.608;2023-07-29T16:18:39;8.00;;;5.00;;
37169;SDS011;23062;13.952;100.608;2023-07-29T16:23:09;9.00;;;6.00;;
37169;SDS011;23062;13.952;100.608;2023-07-29T16:27:37;6.00;;;3.73;;
37169;SDS011;23062;13.952;100.608;2023-07-29T16:32:05;8.00;;;5.00;;
37169;SDS011;23062;13.952;100.608;2023-07-29T16:36:33;6.00;;;4.00;;
37169;SDS011;23062;13.952;100.608;2023-07-29T16:41:00;8.00;;;5.00;;
37169;SDS011;23062;13.952;100.608;2023-07-29T16:45:25;5.00;;;3.00;;
37169;SDS011;23062;13.952;100.608;2023-07-29T16:49:50;6.00;;;3.73;;
37169;SDS011;23062;13.952;100.608;2023-07-29T16:54:18;6.00;;;4.00;;
37169;SDS011;23062;13.952;100.608;2023-07-29T16:58:54;6.00;;;4.00;;
37169;SDS011;23062;13.952;100.608;2023-07-29T17:03:23;7.00;;;5.00;;
37169;SDS011;23062;13.952;100.608;2023-07-29T17:07:48;7.00;;;5.00;;
37169;SDS011;23062;13.952;100.608;2023-07-29T17:12:15;6.00;;;4.00;;
37169;SDS011;23062;13.952;100.608;2023-07-29T17:16:48;6.00;;;4.00;;
37169;SDS011;23062;13.952;100.608;2023-07-29T17:21:14;6.00;;;4.00;;
37169;SDS011;23062;13.952;100.608;2023-07-29T17:25:40;6.00;;;4.00;;
37169;SDS011;23062;13.952;100.608;2023-07-29T17:30:08;8.00;;;5.00;;
37169;SDS011;23062;13.952;100.608;2023-07-29T17:34:39;6.00;;;4.00;;
37169;SDS011;23062;13.952;100.608;2023-07-29T17:39:13;9.00;;;6.00;;
37169;SDS011;23062;13.952;100.608;2023-07-29T17:43:42;8.00;;;5.00;;
37169;SDS011;23062;13.952;100.608;2023-07-29T17:48:12;6.00;;;4.00;;
37169;SDS011;23062;13.952;100.608;2023-07-29T17:52:38;7.00;;;5.00;;
37169;SDS011;23062;13.952;100.608;2023-07-29T17:57:13;7.00;;;5.00;;
37169;SDS011;23062;13.952;100.608;2023-07-29T18:01:40;7.00;;;5.00;;
37169;SDS011;23062;13.952;100.608;2023-07-29T18:06:15;5.00;;;3.00;;
37169;SDS011;23062;13.952;100.608;2023-07-29T18:10:48;7.00;;;5.00;;
37169;SDS011;23062;13.952;100.608;2023-07-29T18:15:16;6.00;;;4.00;;
37169;SDS011;23062;13.952;100.608;2023-07-29T18:19:50;6.00;;;4.00;;
37169;SDS011;23062;13.952;100.608;2023-07-29T18:24:26;6.00;;;4.00;;
37169;SDS011;23062;13.952;100.608;2023-07-29T18:28:54;6.00;;;4.00;;
37169;SDS011;23062;13.952;100.608;2023-07-29T18:33:26;6.00;;;4.00;;
37169;SDS011;23062;13.952;100.608;2023-07-29T18:37:52;7.00;;;5.00;;
37169;SDS011;23062;13.952;100.608;2023-07-29T18:42:19;7.00;;;4.00;;
37169;SDS011;23062;13.952;100.608;2023-07-29T18:46:49;8.00;;;5.00;;
37169;SDS011;23062;13.952;100.608;2023-07-29T18:51:15;6.00;;;4.00;;
37169;SDS011;23062;13.952;100.608;2023-07-29T18:55:47;7.00;;;5.00;;
37169;SDS011;23062;13.952;100.608;2023-07-29T19:00:22;6.00;;;4.00;;
37169;SDS011;23062;13.952;100.608;2023-07-29T19:04:50;7.00;;;5.00;;
37169;SDS011;23062;13.952;100.608;2023-07-29T19:09:22;9.00;;;6.00;;
37169;SDS011;23062;13.952;100.608;2023-07-29T19:13:48;8.00;;;5.00;;
37169;SDS011;23062;13.952;100.608;2023-07-29T19:18:23;6.00;;;4.00;;
37169;SDS011;23062;13.952;100.608;2023-07-29T19:22:49;7.00;;;5.00;;
37169;SDS011;23062;13.952;100.608;2023-07-29T19:27:17;6.00;;;4.00;;
37169;SDS011;23062;13.952;100.608;2023-07-29T19:31:44;6.00;;;4.00;;
37169;SDS011;23062;13.952;100.608;2023-07-29T19:36:14;7.00;;;5.00;;
37169;SDS011;23062;13.952;100.608;2023-07-29T19:40:42;6.00;;;4.00;;
37169;SDS011;23062;13.952;100.608;2023-07-29T19:45:08;9.00;;;6.00;;
37169;SDS011;23062;13.952;100.608;2023-07-29T19:49:37;7.00;;;4.00;;
37169;SDS011;23062;13.952;100.608;2023-07-29T19:54:07;6.00;;;4.00;;
37169;SDS011;23062;13.952;100.608;2023-07-29T19:58:37;7.00;;;4.00;;
37169;SDS011;23062;13.952;100.608;2023-07-29T20:03:10;8.00;;;6.00;;
37169;SDS011;23062;13.952;100.608;2023-07-29T20:07:41;7.00;;;5.00;;
37169;SDS011;23062;13.952;100.608;2023-07-29T20:12:10;7.00;;;5.00;;
37169;SDS011;23062;13.952;100.608;2023-07-29T20:16:38;7.00;;;5.00;;
37169;SDS011;23062;13.952;100.608;2023-07-29T20:21:12;8.00;;;6.00;;
37169;SDS011;23062;13.952;100.608;2023-07-29T20:25:38;8.00;;;6.00;;
37169;SDS011;23062;13.952;100.608;2023-07-29T20:30:05;8.00;;;6.00;;
37169;SDS011;23062;13.952;100.608;2023-07-29T20:34:38;8.00;;;6.00;;
37169;SDS011;23062;13.952;100.608;2023-07-29T20:39:04;8.00;;;5.00;;
37169;SDS011;23062;13.952;100.608;2023-07-29T20:43:37;7.00;;;5.00;;
37169;SDS011;23062;13.952;100.608;2023-07-29T20:48:11;9.00;;;6.00;;
37169;SDS011;23062;13.952;100.608;2023-07-29T20:52:44;7.00;;;5.00;;
37169;SDS011;23062;13.952;100.608;2023-07-29T20:57:11;8.00;;;6.00;;
37169;SDS011;23062;13.952;100.608;2023-07-29T21:01:38;7.00;;;5.00;;
37169;SDS011;23062;13.952;100.608;2023-07-29T21:06:13;7.00;;;5.00;;
37169;SDS011;23062;13.952;100.608;2023-07-29T21:10:40;7.00;;;5.00;;
37169;SDS011;23062;13.952;100.608;2023-07-29T21:15:06;6.00;;;3.73;;
37169;SDS011;23062;13.952;100.608;2023-07-29T21:19:35;9.00;;;6.00;;
37169;SDS011;23062;13.952;100.608;2023-07-29T21:24:01;8.00;;;5.00;;
37169;SDS011;23062;13.952;100.608;2023-07-29T21:28:36;7.00;;;5.00;;
37169;SDS011;23062;13.952;100.608;2023-07-29T21:33:01;6.00;;;4.00;;
37169;SDS011;23062;13.952;100.608;2023-07-29T21:37:28;9.00;;;6.00;;
37169;SDS011;23062;13.952;100.608;2023-07-29T21:42:02;6.00;;;4.00;;
37169;SDS011;23062;13.952;100.608;2023-07-29T21:46:31;7.00;;;5.00;;
37169;SDS011;23062;13.952;100.608;2023-07-29T21:50:57;6.00;;;4.00;;
37169;SDS011;23062;13.952;100.608;2023-07-29T21:55:24;6.00;;;4.00;;
37169;SDS011;23062;13.952;100.608;2023-07-29T21:59:54;7.00;;;5.00;;
37169;SDS011;23062;13.952;100.608;2023-07-29T22:04:22;7.00;;;5.00;;
37169;SDS011;23062;13.952;100.608;2023-07-29T22:08:48;8.00;;;6.00;;
37169;SDS011;23062;13.952;100.608;2023-07-29T22:13:17;8.00;;;5.00;;
37169;SDS011;23062;13.952;100.608;2023-07-29T22:17:44;10.00;;;7.00;;
37169;SDS011;23062;13.952;100.608;2023-07-29T22:22:13;8.00;;;5.00;;
37169;SDS011;23062;13.952;100.608;2023-07-29T22:26:41;8.00;;;5.00;;
37169;SDS011;23062;13.952;100.608;2023-07-29T22:31:08;8.00;;;5.00;;
37169;SDS011;23062;13.952;100.608;2023-07-29T22:35:38;6.00;;;4.00;;
37169;SDS011;23062;13.952;100.608;2023-07-29T22:40:04;8.00;;;5.00;;
37169;SDS011;23062;13.952;100.608;2023-07-29T22:44:31;8.00;;;5.00;;
37169;SDS011;23062;13.952;100.608;2023-07-29T22:48:59;7.00;;;5.00;;
37169;SDS011;23062;13.952;100.608;2023-07-29T22:53:31;8.00;;;6.00;;
37169;SDS011;23062;13.952;100.608;2023-07-29T22:57:57;7.00;;;5.00;;
37169;SDS011;23062;13.952;100.608;2023-07-29T23:02:31;7.00;;;5.00;;
37169;SDS011;23062;13.952;100.608;2023-07-29T23:06:59;8.00;;;5.00;;
37169;SDS011;23062;13.952;100.608;2023-07-29T23:11:25;9.00;;;5.60;;
37169;SDS011;23062;13.952;100.608;2023-07-29T23:15:52;7.00;;;4.67;;
37169;SDS011;23062;13.952;100.608;2023-07-29T23:20:21;7.00;;;5.00;;
37169;SDS011;23062;13.952;100.608;2023-07-29T23:24:47;7.00;;;5.00;;
37169;SDS011;23062;13.952;100.608;2023-07-29T23:29:19;9.00;;;6.00;;
37169;SDS011;23062;13.952;100.608;2023-07-29T23:33:53;8.00;;;6.00;;
37169;SDS011;23062;13.952;100.608;2023-07-29T23:38:26;8.00;;;5.00;;
37169;SDS011;23062;13.952;100.608;2023-07-29T23:43:02;8.00;;;6.00;;
37169;SDS011;23062;13.952;100.608;2023-07-29T23:47:29;6.00;;;4.00;;
37169;SDS011;23062;13.952;100.608;2023-07-29T23:51:55;6.00;;;3.73;;
37169;SDS011;23062;13.952;100.608;2023-07-29T23:56:23;7.00;;;5.00;;
